createdAt,value
2022-12-14T00:01:00.866Z,90.50
2022-12-14T00:03:31.540Z,90.50
2022-12-14T00:06:01.203Z,90.50
2022-12-14T00:08:30.791Z,90.60
2022-12-14T00:11:01.244Z,90.60
2022-12-14T00:13:30.882Z,90.60
2022-12-14T00:16:00.552Z,90.60
2022-12-14T00:18:30.575Z,90.60
2022-12-14T00:21:09.398Z,90.50
2022-12-14T00:23:40.455Z,90.60
2022-12-14T00:26:16.477Z,90.60
2022-12-14T00:28:47.944Z,90.60
2022-12-14T00:31:18.358Z,90.60
2022-12-14T00:33:48.530Z,90.60
2022-12-14T00:36:18.144Z,90.70
2022-12-14T00:38:48.011Z,91.00
2022-12-14T00:41:18.721Z,90.70
2022-12-14T00:43:49.710Z,90.70
2022-12-14T00:46:20.116Z,90.70
2022-12-14T00:48:50.004Z,90.70
2022-12-14T00:51:20.321Z,90.70
2022-12-14T00:53:50.245Z,90.60
2022-12-14T00:56:20.157Z,90.70
2022-12-14T00:58:54.798Z,90.70
2022-12-14T01:01:24.803Z,90.70
2022-12-14T01:04:14.531Z,90.80
2022-12-14T01:06:45.467Z,90.80
2022-12-14T01:09:15.777Z,90.90
2022-12-14T01:11:46.548Z,90.80
2022-12-14T01:14:19.080Z,90.80
2022-12-14T01:16:48.852Z,90.70
2022-12-14T01:19:18.497Z,90.70
2022-12-14T01:21:48.058Z,90.60
2022-12-14T01:24:17.712Z,90.50
2022-12-14T01:26:47.273Z,90.50
2022-12-14T01:29:17.991Z,90.50
2022-12-14T01:31:48.723Z,90.40
2022-12-14T01:34:19.067Z,90.30
2022-12-14T01:36:48.649Z,90.30
2022-12-14T01:39:18.825Z,90.20
2022-12-14T01:41:57.070Z,90.10
2022-12-14T01:44:53.549Z,90.10
2022-12-14T01:47:34.941Z,90.00
2022-12-14T01:50:25.032Z,89.80
2022-12-14T01:52:58.985Z,89.50
2022-12-14T01:55:38.208Z,89.30
2022-12-14T01:58:19.117Z,89.00
2022-12-14T02:00:49.185Z,88.80
2022-12-14T02:03:28.435Z,88.60
2022-12-14T02:06:11.546Z,88.30
2022-12-14T02:08:43.883Z,87.90
2022-12-14T02:11:13.978Z,87.10
2022-12-14T02:13:44.856Z,86.20
2022-12-14T02:16:18.822Z,86.20
2022-12-14T02:18:48.812Z,85.50
2022-12-14T02:21:51.424Z,84.90
2022-12-14T02:24:55.664Z,84.80
2022-12-14T02:28:04.385Z,83.50
2022-12-14T02:30:41.018Z,83.50
2022-12-14T02:33:37.997Z,83.30
2022-12-14T02:36:36.720Z,83.20
2022-12-14T02:39:42.839Z,83.10
2022-12-14T02:42:22.466Z,82.60
2022-12-14T02:45:13.742Z,82.40
2022-12-14T02:47:56.271Z,82.20
2022-12-14T02:50:51.612Z,82.40
2022-12-14T02:53:47.426Z,81.40
2022-12-14T02:56:22.145Z,81.30
2022-12-14T02:58:52.826Z,80.80
2022-12-14T03:01:27.313Z,80.60
2022-12-14T03:03:57.525Z,80.80
2022-12-14T03:06:27.799Z,80.40
2022-12-14T03:09:17.000Z,80.50
2022-12-14T03:12:03.448Z,79.30
2022-12-14T03:14:41.707Z,79.40
2022-12-14T03:17:19.584Z,79.20
2022-12-14T03:19:55.681Z,78.60
2022-12-14T03:22:30.994Z,78.00
2022-12-14T03:25:07.748Z,78.40
2022-12-14T03:27:41.618Z,77.90
2022-12-14T03:30:18.413Z,77.30
2022-12-14T03:33:04.412Z,77.30
2022-12-14T03:35:53.264Z,76.70
2022-12-14T03:38:38.052Z,74.90
2022-12-14T03:41:24.977Z,75.20
2022-12-14T03:44:11.587Z,74.50
2022-12-14T03:47:20.516Z,75.10
2022-12-14T03:50:17.767Z,74.60
2022-12-14T03:53:11.864Z,74.00
2022-12-14T03:56:15.467Z,73.90
2022-12-14T03:58:57.422Z,73.60
2022-12-14T04:02:06.495Z,73.30
2022-12-14T04:04:44.986Z,72.20
2022-12-14T04:07:44.913Z,72.80
2022-12-14T04:10:43.655Z,72.20
2022-12-14T04:13:41.218Z,72.10
2022-12-14T04:16:38.109Z,71.50
2022-12-14T04:19:15.352Z,70.30
2022-12-14T04:22:04.130Z,70.90
2022-12-14T04:25:08.143Z,70.50
2022-12-14T04:27:49.870Z,69.20
2022-12-14T04:30:19.906Z,68.90
2022-12-14T04:33:01.165Z,68.90
2022-12-14T04:35:38.018Z,67.90
2022-12-14T04:38:17.944Z,67.60
2022-12-14T04:40:58.805Z,68.10
2022-12-14T04:43:33.905Z,68.10
2022-12-14T04:46:11.855Z,67.90
2022-12-14T04:49:05.726Z,67.50
2022-12-14T04:52:12.856Z,66.10
2022-12-14T04:55:06.324Z,66.70
2022-12-14T04:57:51.492Z,66.10
2022-12-14T05:00:21.212Z,66.10
2022-12-14T05:03:24.479Z,65.60
2022-12-14T05:06:24.405Z,66.00
2022-12-14T05:09:20.586Z,65.70
2022-12-14T05:12:12.468Z,65.10
2022-12-14T05:14:50.092Z,65.60
2022-12-14T05:17:20.133Z,65.60
2022-12-14T05:19:51.465Z,63.90
2022-12-14T05:22:21.279Z,63.70
2022-12-14T05:24:50.914Z,63.50
2022-12-14T05:27:20.556Z,63.80
2022-12-14T05:29:50.103Z,64.00
2022-12-14T05:32:19.767Z,62.80
2022-12-14T05:34:49.558Z,62.90
2022-12-14T05:37:19.093Z,62.50
2022-12-14T05:39:48.778Z,62.60
2022-12-14T05:42:18.628Z,62.80
2022-12-14T05:44:48.132Z,61.60
2022-12-14T05:47:18.533Z,62.20
2022-12-14T05:49:49.185Z,61.80
2022-12-14T05:52:19.909Z,61.10
2022-12-14T05:54:49.835Z,61.30
2022-12-14T05:57:19.727Z,60.50
2022-12-14T05:59:50.553Z,61.10
2022-12-14T06:02:20.602Z,60.30
2022-12-14T06:04:50.684Z,60.60
2022-12-14T06:07:24.511Z,59.90
2022-12-14T06:09:57.508Z,60.70
2022-12-14T06:12:27.865Z,60.70
2022-12-14T06:14:57.768Z,60.90
2022-12-14T06:17:27.665Z,61.10
2022-12-14T06:19:57.616Z,59.90
2022-12-14T06:22:27.835Z,60.60
2022-12-14T06:24:58.037Z,59.90
2022-12-14T06:27:27.978Z,59.50
2022-12-14T06:29:57.827Z,59.80
2022-12-14T06:32:27.737Z,60.30
2022-12-14T06:34:57.684Z,59.10
2022-12-14T06:37:27.535Z,58.60
2022-12-14T06:39:57.403Z,58.70
2022-12-14T06:42:27.375Z,58.20
2022-12-14T06:44:57.237Z,58.80
2022-12-14T06:47:28.751Z,59.10
2022-12-14T06:49:58.852Z,59.20
2022-12-14T06:52:28.685Z,58.60
2022-12-14T06:54:58.632Z,58.40
2022-12-14T06:57:28.818Z,58.40
2022-12-14T06:59:58.744Z,58.20
2022-12-14T07:02:28.747Z,57.00
2022-12-14T07:04:58.755Z,58.30
2022-12-14T07:07:28.650Z,58.50
2022-12-14T07:09:58.632Z,58.40
2022-12-14T07:12:29.676Z,58.40
2022-12-14T07:15:00.259Z,57.90
2022-12-14T07:17:30.329Z,57.10
2022-12-14T07:20:00.182Z,57.20
2022-12-14T07:22:30.184Z,57.30
2022-12-14T07:25:00.343Z,57.10
2022-12-14T07:27:30.512Z,57.10
2022-12-14T07:30:00.400Z,57.50
2022-12-14T07:32:30.279Z,57.00
2022-12-14T07:35:00.174Z,57.10
2022-12-14T07:37:30.039Z,56.20
2022-12-14T07:39:59.983Z,56.60
2022-12-14T07:42:29.958Z,56.30
2022-12-14T07:44:59.836Z,56.50
2022-12-14T07:47:33.873Z,56.50
2022-12-14T07:50:03.687Z,56.30
2022-12-14T07:52:37.468Z,56.20
2022-12-14T07:55:07.713Z,56.30
2022-12-14T07:57:37.294Z,56.30
2022-12-14T08:00:07.588Z,55.80
2022-12-14T08:02:37.233Z,55.50
2022-12-14T08:05:12.323Z,55.20
2022-12-14T08:07:42.365Z,55.40
2022-12-14T08:10:12.017Z,55.30
2022-12-14T08:12:41.775Z,55.30
2022-12-14T08:15:11.737Z,54.70
2022-12-14T08:17:41.229Z,54.90
2022-12-14T08:20:12.442Z,54.80
2022-12-14T08:22:42.012Z,55.30
2022-12-14T08:25:11.958Z,55.40
2022-12-14T08:27:41.800Z,55.40
2022-12-14T08:30:11.917Z,55.30
2022-12-14T08:32:41.401Z,55.40
2022-12-14T08:35:11.267Z,54.80
2022-12-14T08:37:45.753Z,55.00
2022-12-14T08:40:17.060Z,55.30
2022-12-14T08:42:46.667Z,55.50
2022-12-14T08:45:16.512Z,55.30
2022-12-14T08:47:48.247Z,55.40
2022-12-14T08:50:18.137Z,55.40
2022-12-14T08:52:50.966Z,55.30
2022-12-14T08:55:27.564Z,55.40
2022-12-14T08:57:59.847Z,55.40
2022-12-14T09:00:29.463Z,55.10
2022-12-14T09:02:59.150Z,55.40
2022-12-14T09:05:28.875Z,55.20
2022-12-14T09:07:58.518Z,55.00
2022-12-14T09:10:28.180Z,55.00
2022-12-14T09:12:57.770Z,55.00
2022-12-14T09:15:28.002Z,55.00
2022-12-14T09:17:57.522Z,55.10
2022-12-14T09:20:27.263Z,55.10
2022-12-14T09:22:56.750Z,54.80
2022-12-14T09:25:26.269Z,55.10
2022-12-14T09:27:56.406Z,55.00
2022-12-14T09:30:27.244Z,54.70
2022-12-14T09:32:56.904Z,54.90
2022-12-14T09:35:26.506Z,54.70
2022-12-14T09:37:56.005Z,54.50
2022-12-14T09:40:29.066Z,54.90
2022-12-14T09:43:05.920Z,54.40
2022-12-14T09:45:39.590Z,54.80
2022-12-14T09:48:23.125Z,55.00
2022-12-14T09:50:55.288Z,55.10
2022-12-14T09:53:25.164Z,54.60
2022-12-14T09:55:57.913Z,54.90
2022-12-14T09:58:32.585Z,54.90
2022-12-14T10:01:43.566Z,55.00
2022-12-14T10:04:41.547Z,55.00
2022-12-14T10:07:34.299Z,55.00
2022-12-14T10:10:43.198Z,55.10
2022-12-14T10:13:35.295Z,55.40
2022-12-14T10:16:21.915Z,55.50
2022-12-14T10:19:19.165Z,55.70
2022-12-14T10:21:59.126Z,55.90
2022-12-14T10:24:35.898Z,56.10
2022-12-14T10:27:09.208Z,56.20
2022-12-14T10:29:49.625Z,56.30
2022-12-14T10:32:31.904Z,56.40
2022-12-14T10:35:14.166Z,56.30
2022-12-14T10:37:50.683Z,56.60
2022-12-14T10:40:34.677Z,56.50
2022-12-14T10:43:28.230Z,56.70
2022-12-14T10:46:34.254Z,56.80
2022-12-14T10:49:43.627Z,56.90
2022-12-14T10:52:23.993Z,57.00
2022-12-14T10:55:32.688Z,57.40
2022-12-14T10:58:03.135Z,57.60
2022-12-14T11:00:33.003Z,57.80
2022-12-14T11:03:04.710Z,58.00
2022-12-14T11:05:58.484Z,58.10
2022-12-14T11:08:49.483Z,58.40
2022-12-14T11:11:23.480Z,58.60
2022-12-14T11:14:10.543Z,58.80
2022-12-14T11:16:43.435Z,58.80
2022-12-14T11:19:25.796Z,59.10
2022-12-14T11:22:09.675Z,59.30
2022-12-14T11:24:47.501Z,59.50
2022-12-14T11:27:22.676Z,59.60
2022-12-14T11:29:53.655Z,59.80
2022-12-14T11:32:27.230Z,59.90
2022-12-14T11:35:00.940Z,60.10
2022-12-14T11:37:33.903Z,60.30
2022-12-14T11:40:08.341Z,60.40
2022-12-14T11:42:39.963Z,60.50
2022-12-14T11:45:31.149Z,60.80
2022-12-14T11:48:24.866Z,61.00
2022-12-14T11:50:57.937Z,61.30
2022-12-14T11:53:27.988Z,61.40
2022-12-14T11:56:01.645Z,62.00
2022-12-14T11:58:36.336Z,62.70
2022-12-14T12:01:16.356Z,63.20
2022-12-14T12:03:52.033Z,63.50
2022-12-14T12:06:30.706Z,63.90
2022-12-14T12:09:03.687Z,64.20
2022-12-14T12:11:36.037Z,64.70
2022-12-14T12:14:32.266Z,64.80
2022-12-14T12:17:02.087Z,65.40
2022-12-14T12:19:39.946Z,65.70
2022-12-14T12:22:13.605Z,66.20
2022-12-14T12:28:04.993Z,67.20
2022-12-14T12:30:38.494Z,67.30
2022-12-14T12:33:21.435Z,67.80
2022-12-14T12:35:57.957Z,68.20
2022-12-14T12:38:58.113Z,68.50
2022-12-14T12:42:06.861Z,68.80
2022-12-14T12:45:08.386Z,69.40
2022-12-14T12:47:48.144Z,70.60
2022-12-14T12:50:21.663Z,70.30
2022-12-14T12:53:03.943Z,70.40
2022-12-14T12:55:48.300Z,70.70
2022-12-14T12:58:31.126Z,70.70
2022-12-14T13:01:06.904Z,70.90
2022-12-14T13:03:42.929Z,71.30
2022-12-14T13:06:24.416Z,71.40
2022-12-14T13:09:02.162Z,71.80
2022-12-14T13:11:40.271Z,72.10
2022-12-14T13:14:34.517Z,72.50
2022-12-14T13:17:08.151Z,72.90
2022-12-14T13:19:51.987Z,73.00
2022-12-14T13:22:30.593Z,73.50
2022-12-14T13:25:07.276Z,73.80
2022-12-14T13:28:12.294Z,73.70
2022-12-14T13:31:09.464Z,74.00
2022-12-14T13:34:18.277Z,74.20
2022-12-14T13:37:27.127Z,74.20
2022-12-14T13:40:35.850Z,74.50
2022-12-14T13:43:44.823Z,74.70
2022-12-14T13:46:24.704Z,75.00
2022-12-14T13:48:58.752Z,75.90
2022-12-14T13:51:36.272Z,75.80
2022-12-14T13:54:09.686Z,75.70
2022-12-14T13:56:41.772Z,75.80
2022-12-14T13:59:34.849Z,75.90
2022-12-14T14:02:06.692Z,76.00
2022-12-14T14:04:40.263Z,76.40
2022-12-14T14:07:44.408Z,76.50
2022-12-14T14:10:41.424Z,76.70
2022-12-14T14:13:50.173Z,76.90
2022-12-14T14:16:53.193Z,77.20
2022-12-14T14:19:30.100Z,77.10
2022-12-14T14:22:26.242Z,77.50
2022-12-14T14:25:35.369Z,77.40
2022-12-14T14:28:06.845Z,77.50
2022-12-14T14:31:01.539Z,77.70
2022-12-14T14:33:52.186Z,78.00
2022-12-14T14:36:35.279Z,78.00
2022-12-14T14:39:38.337Z,78.10
2022-12-14T14:41:59.108Z,78.30
2022-12-14T14:44:45.794Z,78.60
2022-12-14T14:47:29.542Z,78.50
2022-12-14T14:50:03.938Z,78.70
2022-12-14T14:53:14.169Z,79.10
2022-12-14T14:56:02.394Z,79.20
2022-12-14T14:58:39.010Z,79.20
2022-12-14T15:01:26.804Z,79.20
2022-12-14T15:04:08.820Z,79.00
2022-12-14T15:06:43.787Z,79.20
2022-12-14T15:09:32.153Z,79.20
2022-12-14T15:12:39.655Z,79.20
2022-12-14T15:15:23.579Z,79.20
2022-12-14T15:17:53.206Z,79.30
2022-12-14T15:20:28.080Z,79.50
2022-12-14T15:22:59.077Z,79.30
2022-12-14T15:25:33.485Z,79.40
2022-12-14T15:28:09.440Z,79.60
2022-12-14T15:30:39.115Z,79.50
2022-12-14T15:33:19.319Z,79.50
2022-12-14T15:35:49.523Z,79.60
2022-12-14T15:38:31.726Z,79.80
2022-12-14T15:41:22.756Z,79.80
2022-12-14T15:43:58.133Z,79.90
2022-12-14T15:46:35.640Z,80.10
2022-12-14T15:49:09.932Z,80.00
2022-12-14T15:51:43.252Z,80.30
2022-12-14T15:54:25.623Z,80.30
2022-12-14T15:57:01.902Z,80.30
2022-12-14T15:59:37.403Z,80.60
2022-12-14T16:02:32.405Z,80.70
2022-12-14T16:05:05.223Z,80.80
2022-12-14T16:07:44.146Z,80.90
2022-12-14T16:10:34.508Z,80.90
2022-12-14T16:13:17.907Z,80.80
2022-12-14T16:15:47.964Z,81.50
2022-12-14T16:18:22.052Z,80.90
2022-12-14T16:21:03.296Z,80.80
2022-12-14T16:23:44.878Z,80.80
2022-12-14T16:26:26.455Z,80.90
2022-12-14T16:29:28.206Z,81.10
2022-12-14T16:32:15.734Z,81.10
2022-12-14T16:34:59.333Z,81.20
2022-12-14T16:37:33.320Z,81.30
2022-12-14T16:40:03.662Z,81.20
2022-12-14T16:42:34.441Z,81.10
2022-12-14T16:45:04.137Z,81.20
2022-12-14T16:48:05.346Z,81.40
2022-12-14T16:50:55.815Z,81.40
2022-12-14T16:53:33.926Z,81.30
2022-12-14T16:56:15.456Z,81.20
2022-12-14T16:59:03.914Z,81.30
2022-12-14T17:01:53.704Z,81.80
2022-12-14T17:04:24.610Z,81.90
2022-12-14T17:06:58.672Z,82.00
2022-12-14T17:09:31.241Z,82.00
2022-12-14T17:12:03.855Z,81.90
2022-12-14T17:14:33.833Z,81.80
2022-12-14T17:17:05.896Z,82.00
2022-12-14T17:19:40.309Z,82.40
2022-12-14T17:22:18.137Z,82.60
2022-12-14T17:24:48.066Z,82.90
2022-12-14T17:27:22.598Z,83.00
2022-12-14T17:29:52.558Z,82.90
2022-12-14T17:32:23.853Z,83.60
2022-12-14T17:34:53.838Z,83.00
2022-12-14T17:37:30.962Z,83.00
2022-12-14T17:40:04.226Z,83.00
2022-12-14T17:42:34.204Z,83.20
2022-12-14T17:45:04.271Z,83.10
2022-12-14T17:47:34.323Z,83.20
2022-12-14T17:50:04.249Z,83.10
2022-12-14T17:52:35.066Z,83.50
2022-12-14T17:55:05.820Z,83.40
2022-12-14T17:57:35.585Z,83.40
2022-12-14T18:00:26.250Z,83.50
2022-12-14T18:02:56.665Z,83.30
2022-12-14T18:05:26.657Z,83.40
2022-12-14T18:07:56.576Z,83.60
2022-12-14T18:10:26.784Z,83.60
2022-12-14T18:12:57.392Z,83.60
2022-12-14T18:15:41.841Z,83.70
2022-12-14T18:18:11.913Z,83.60
2022-12-14T18:20:45.234Z,83.70
2022-12-14T18:23:19.945Z,83.60
2022-12-14T18:25:56.245Z,83.70
2022-12-14T18:28:26.849Z,83.80
2022-12-14T18:31:04.913Z,83.60
2022-12-14T18:33:36.677Z,83.70
2022-12-14T18:36:06.828Z,84.00
2022-12-14T18:38:37.381Z,84.20
2022-12-14T18:41:08.166Z,84.20
2022-12-14T18:43:43.710Z,84.20
2022-12-14T18:46:14.684Z,84.30
2022-12-14T18:48:45.563Z,84.30
2022-12-14T18:51:25.284Z,84.30
2022-12-14T18:54:00.159Z,84.20
2022-12-14T18:56:30.876Z,84.40
2022-12-14T18:59:02.084Z,84.50
2022-12-14T19:01:32.688Z,84.60
2022-12-14T19:04:02.599Z,84.50
2022-12-14T19:06:44.019Z,84.70
2022-12-14T19:09:16.667Z,84.70
2022-12-14T19:11:46.527Z,84.60
2022-12-14T19:14:16.083Z,84.70
2022-12-14T19:16:45.764Z,84.80
2022-12-14T19:19:15.453Z,84.90
2022-12-14T19:21:45.003Z,85.00
2022-12-14T19:24:16.098Z,84.80
2022-12-14T19:26:49.550Z,85.00
2022-12-14T19:29:19.296Z,85.20
2022-12-14T19:31:53.883Z,85.30
2022-12-14T19:34:23.965Z,85.30
2022-12-14T19:36:53.602Z,85.20
2022-12-14T19:39:23.206Z,85.30
2022-12-14T19:41:52.765Z,85.20
2022-12-14T19:44:22.571Z,85.20
2022-12-14T19:46:52.195Z,85.30
2022-12-14T19:49:23.744Z,85.20
2022-12-14T19:51:53.418Z,85.20
2022-12-14T19:54:23.006Z,85.40
2022-12-14T19:56:56.255Z,85.40
2022-12-14T19:59:26.781Z,85.40
2022-12-14T20:01:57.167Z,85.50
2022-12-14T20:04:28.129Z,85.60
2022-12-14T20:06:57.803Z,85.60
2022-12-14T20:09:27.315Z,85.50
2022-12-14T20:11:57.051Z,85.50
2022-12-14T20:14:26.974Z,85.50
2022-12-14T20:16:56.468Z,85.60
2022-12-14T20:19:26.636Z,85.80
2022-12-14T20:21:56.397Z,85.80
2022-12-14T20:24:26.024Z,85.80
2022-12-14T20:26:55.801Z,85.90
2022-12-14T20:29:25.929Z,86.00
2022-12-14T20:31:57.039Z,85.90
2022-12-14T20:34:26.818Z,85.90
2022-12-14T20:36:56.398Z,86.00
2022-12-14T20:39:26.133Z,86.00
2022-12-14T20:41:55.765Z,86.10
2022-12-14T20:44:25.310Z,86.10
2022-12-14T20:46:55.012Z,86.10
2022-12-14T20:49:31.078Z,86.20
2022-12-14T20:52:00.651Z,86.20
2022-12-14T20:54:31.023Z,86.30
2022-12-14T20:57:01.024Z,86.30
2022-12-14T20:59:31.842Z,86.40
2022-12-14T21:02:02.380Z,86.50
2022-12-14T21:04:32.181Z,86.30
2022-12-14T21:07:02.825Z,86.20
2022-12-14T21:09:32.397Z,86.40
2022-12-14T21:12:21.589Z,86.40
2022-12-14T21:14:56.400Z,86.50
2022-12-14T21:17:31.599Z,86.40
2022-12-14T21:20:01.236Z,86.60
2022-12-14T21:22:32.225Z,86.70
2022-12-14T21:25:04.166Z,86.70
2022-12-14T21:27:35.787Z,86.60
2022-12-14T21:30:07.473Z,86.60
2022-12-14T21:32:38.828Z,86.60
2022-12-14T21:35:09.302Z,86.60
2022-12-14T21:37:40.556Z,86.70
2022-12-14T21:40:30.280Z,86.70
2022-12-14T21:42:59.864Z,86.70
2022-12-14T21:45:29.530Z,86.70
2022-12-14T21:47:59.120Z,87.00
2022-12-14T21:50:28.804Z,87.00
2022-12-14T21:52:58.365Z,86.90
2022-12-14T21:55:28.036Z,87.00
2022-12-14T21:58:17.258Z,87.10
2022-12-14T22:00:47.763Z,87.20
2022-12-14T22:03:18.265Z,87.10
2022-12-14T22:05:48.446Z,86.90
2022-12-14T22:08:18.396Z,87.00
2022-12-14T22:10:48.459Z,87.00
2022-12-14T22:13:18.575Z,87.00
2022-12-14T22:15:49.474Z,87.00
2022-12-14T22:18:19.653Z,87.00
2022-12-14T22:20:49.630Z,87.20
2022-12-14T22:23:19.493Z,87.10
2022-12-14T22:25:52.759Z,87.20
2022-12-14T22:28:22.637Z,87.10
2022-12-14T22:30:52.736Z,87.30
2022-12-14T22:33:22.743Z,87.20
2022-12-14T22:35:52.930Z,87.20
2022-12-14T22:38:22.845Z,87.20
2022-12-14T22:40:52.906Z,87.20
2022-12-14T22:43:28.113Z,87.50
2022-12-14T22:46:03.399Z,87.40
2022-12-14T22:48:36.430Z,87.50
2022-12-14T22:51:11.921Z,87.60
2022-12-14T22:53:41.879Z,87.50
2022-12-14T22:56:28.789Z,87.60
2022-12-14T22:59:09.903Z,87.60
2022-12-14T23:01:41.057Z,87.70
2022-12-14T23:04:14.795Z,87.80
2022-12-14T23:06:44.920Z,87.70
2022-12-14T23:09:34.191Z,87.80
2022-12-14T23:12:23.493Z,87.80
2022-12-14T23:15:12.691Z,87.80
2022-12-14T23:18:01.973Z,88.00
2022-12-14T23:20:51.091Z,87.90
2022-12-14T23:23:40.264Z,87.80
2022-12-14T23:26:29.400Z,87.70
2022-12-14T23:29:18.657Z,87.70
2022-12-14T23:32:07.843Z,87.70
2022-12-14T23:34:57.065Z,87.70
2022-12-14T23:37:46.210Z,87.70
2022-12-14T23:40:35.433Z,87.70
2022-12-14T23:43:38.907Z,87.80
2022-12-14T23:46:28.872Z,87.80
2022-12-14T23:49:18.095Z,87.90
2022-12-14T23:52:07.346Z,87.90
2022-12-14T23:54:56.503Z,88.00
2022-12-14T23:57:46.092Z,88.20
